Terminal Aerodrome Forecast
Issued by NWS

Home | Current Version | Previous Version | Text Only | Print | Product List | Glossary On
Versions: 1 2 3 4 5 6 7 8 9 10 11 12 13 14 15 16 17 18 19 20 21 22 23 24 25 26 27 28 29 30 31
134
FTUS41 KRLX 301120
TAFCKB
TAF
KCKB 301120Z 3012/3112 00000KT P6SM SCT015
      TEMPO 3012/3014 BKN015
     FM301400 VRB03KT P6SM OVC025
     FM301600 VRB03KT P6SM OVC035
     FM301800 VRB03KT P6SM VCTS OVC035CB
      TEMPO 3018/3021 4SM TSRA BR OVC025CB
     FM302200 00000KT P6SM BKN040
     FM310800 00000KT 3SM BR BKN040
     FM310900 00000KT 1SM BR BKN001=

USA.gov is the U.S. government's official web portal to all federal, state and local government web resources and services.